Time;durP1;ratioP1;P1;durP2;ratioP2;P2;SDS_P1;SDS_P2;PMS_P1;PMS_P2;Temp;Humidity;BMP_temperature;BMP_pressure;BME280_temperature;BME280_humidity;BME280_pressure;Samples;Min_cycle;Max_cycle;Signal;HPM_P1;HPM_P2
2021/08/31 00:00:36;;;;;;;;;;;;;;;15.53;100.00;101785.19;5050240;28;19940;-65
2021/08/31 00:03:05;;;;;;;;;;;;;;;15.52;100.00;101778.09;5046616;28;20328;-65
2021/08/31 00:05:34;;;;;;;;;;;;;;;15.50;100.00;101783.66;5043754;28;19928;-65
2021/08/31 00:08:02;;;;;;;;;;;;;;;15.49;100.00;101782.84;5045997;28;20093;-65
2021/08/31 00:10:30;;;;;;;;;;;;;;;15.44;100.00;101784.34;5048280;28;19974;-65
2021/08/31 00:12:57;;;;;;;;;;;;;;;15.48;100.00;101786.53;5057124;28;19924;-65
2021/08/31 00:15:25;;;;;;;;;;;;;;;15.45;100.00;101784.19;5047719;28;20220;-66
2021/08/31 00:17:52;;;;;;;;;;;;;;;15.40;100.00;101791.91;5052302;28;19929;-66
2021/08/31 00:20:20;;;;;;;;;;;;;;;15.47;100.00;101792.09;5051773;28;19982;-66
2021/08/31 00:22:49;;;;;;;;;;;;;;;15.37;100.00;101797.66;5051484;28;19982;-66
2021/08/31 00:25:17;;;;;;;;;;;;;;;15.43;100.00;101791.56;5046845;28;20210;-65
2021/08/31 00:27:44;;;;;;;;;;;;;;;15.43;100.00;101790.75;5046756;28;19982;-66
2021/08/31 00:30:12;;;;;;;;;;;;;;;15.40;100.00;101800.00;5052416;28;19932;-66
2021/08/31 00:32:40;;;;;;;;;;;;;;;15.37;100.00;101794.97;5051131;28;19925;-65
2021/08/31 00:35:08;;;;;;;;;;;;;;;15.38;100.00;101796.66;5052785;28;20251;-65
2021/08/31 00:37:35;;;;;;;;;;;;;;;15.39;100.00;101795.63;5051293;28;19921;-65
2021/08/31 00:40:05;;;;;;;;;;;;;;;15.41;100.00;101799.00;5051237;28;20255;-65
2021/08/31 00:42:34;;;;;;;;;;;;;;;15.39;100.00;101798.31;5047669;28;20020;-66
2021/08/31 00:45:02;;;;;;;;;;;;;;;15.35;100.00;101804.22;5049360;28;20409;-66
2021/08/31 00:47:30;;;;;;;;;;;;;;;15.32;100.00;101800.00;5046643;28;20355;-66
2021/08/31 00:49:58;;;;;;;;;;;;;;;15.28;100.00;101804.03;5050581;28;19939;-65
2021/08/31 00:52:25;;;;;;;;;;;;;;;15.31;100.00;101804.56;5048561;28;19921;-65
2021/08/31 00:54:53;;;;;;;;;;;;;;;15.17;100.00;101801.69;5051803;28;19994;-65
2021/08/31 00:57:22;;;;;;;;;;;;;;;15.13;100.00;101803.91;5050823;28;19921;-66
2021/08/31 00:59:51;;;;;;;;;;;;;;;15.11;100.00;101801.38;5046281;28;19925;-66
2021/08/31 01:02:18;;;;;;;;;;;;;;;15.02;100.00;101799.69;5048320;28;19932;-68
2021/08/31 01:04:46;;;;;;;;;;;;;;;14.91;100.00;101805.41;5048537;28;19943;-65
2021/08/31 01:07:14;;;;;;;;;;;;;;;14.73;100.00;101806.41;5048531;28;20327;-65
2021/08/31 01:09:42;;;;;;;;;;;;;;;14.71;100.00;101811.09;5049357;28;20598;-66
2021/08/31 01:12:10;;;;;;;;;;;;;;;14.54;100.00;101817.44;5047732;28;19920;-66
2021/08/31 01:14:39;;;;;;;;;;;;;;;14.35;100.00;101810.53;5049688;28;20312;-65
2021/08/31 01:17:06;;;;;;;;;;;;;;;14.22;100.00;101809.13;5050001;28;19990;-66
2021/08/31 01:19:34;;;;;;;;;;;;;;;14.19;100.00;101813.97;5051954;28;20331;-65
2021/08/31 01:22:04;;;;;;;;;;;;;;;14.18;100.00;101823.06;5049023;28;19921;-65
2021/08/31 01:24:32;;;;;;;;;;;;;;;14.05;100.00;101828.91;5040320;28;19940;-65
2021/08/31 01:27:01;;;;;;;;;;;;;;;13.94;100.00;101824.63;5046892;28;19921;-66
2021/08/31 01:29:29;;;;;;;;;;;;;;;13.90;100.00;101829.47;5049361;28;19970;-66
2021/08/31 01:31:57;;;;;;;;;;;;;;;13.92;100.00;101829.31;5046741;28;19921;-66
2021/08/31 01:34:24;;;;;;;;;;;;;;;14.06;100.00;101831.41;5047049;28;20308;-66
2021/08/31 01:36:52;;;;;;;;;;;;;;;14.17;100.00;101821.38;5050223;28;19935;-67
2021/08/31 01:39:20;;;;;;;;;;;;;;;14.25;100.00;101826.78;5049116;28;19924;-66
2021/08/31 01:41:48;;;;;;;;;;;;;;;14.28;100.00;101818.38;5050251;28;19924;-66
2021/08/31 01:44:16;;;;;;;;;;;;;;;14.32;100.00;101822.44;5049734;28;20385;-66
2021/08/31 01:46:44;;;;;;;;;;;;;;;14.35;100.00;101824.78;5046771;28;19921;-66
2021/08/31 01:49:12;;;;;;;;;;;;;;;14.37;100.00;101825.44;5043493;28;20264;-66
2021/08/31 01:51:39;;;;;;;;;;;;;;;14.41;100.00;101825.97;5048606;28;19921;-66
2021/08/31 01:54:07;;;;;;;;;;;;;;;14.49;100.00;101828.69;5045953;28;19924;-66
2021/08/31 01:56:35;;;;;;;;;;;;;;;14.48;100.00;101826.19;5045533;28;20262;-67
2021/08/31 01:59:03;;;;;;;;;;;;;;;14.48;100.00;101818.13;5045699;28;19924;-66
2021/08/31 02:01:32;;;;;;;;;;;;;;;14.50;100.00;101824.16;5051772;28;19921;-66
2021/08/31 02:04:00;;;;;;;;;;;;;;;14.53;100.00;101823.81;5048175;28;19969;-66
2021/08/31 02:06:28;;;;;;;;;;;;;;;14.50;100.00;101821.47;5045394;28;20313;-66
2021/08/31 02:08:55;;;;;;;;;;;;;;;14.52;100.00;101820.28;5054342;28;19928;-66
2021/08/31 02:11:23;;;;;;;;;;;;;;;14.53;100.00;101819.31;5048798;28;19921;-66
2021/08/31 02:13:50;;;;;;;;;;;;;;;14.53;100.00;101816.63;5042499;28;19928;-67
2021/08/31 02:16:18;;;;;;;;;;;;;;;14.46;100.00;101816.41;5049064;28;19966;-66
2021/08/31 02:18:47;;;;;;;;;;;;;;;14.49;100.00;101830.53;5046947;28;19960;-66
2021/08/31 02:21:15;;;;;;;;;;;;;;;14.53;100.00;101826.50;5049090;28;19929;-66
2021/08/31 02:23:42;;;;;;;;;;;;;;;14.40;100.00;101822.47;5044253;28;20304;-66
2021/08/31 02:26:10;;;;;;;;;;;;;;;14.22;100.00;101819.06;5047454;28;20299;-66
2021/08/31 02:28:38;;;;;;;;;;;;;;;14.05;100.00;101824.34;5048277;28;20145;-66
2021/08/31 02:31:05;;;;;;;;;;;;;;;13.88;100.00;101822.59;5047726;28;20298;-66
2021/08/31 02:33:33;;;;;;;;;;;;;;;13.75;100.00;101831.94;5043529;28;19925;-66
2021/08/31 02:36:02;;;;;;;;;;;;;;;13.68;100.00;101838.94;5049467;28;19928;-67
2021/08/31 02:38:30;;;;;;;;;;;;;;;13.71;100.00;101837.78;5043180;28;20202;-66
2021/08/31 02:40:57;;;;;;;;;;;;;;;13.85;100.00;101842.56;5048279;28;19921;-66
2021/08/31 02:43:25;;;;;;;;;;;;;;;13.94;100.00;101844.25;5044261;28;19921;-66
2021/08/31 02:45:53;;;;;;;;;;;;;;;13.89;100.00;101840.38;5048959;28;20315;-66
2021/08/31 02:48:20;;;;;;;;;;;;;;;13.93;100.00;101847.97;5044418;28;20270;-66
2021/08/31 02:50:48;;;;;;;;;;;;;;;13.95;100.00;101839.75;5053912;28;19924;-66
2021/08/31 02:53:17;;;;;;;;;;;;;;;13.97;100.00;101843.09;5048771;28;19921;-66
2021/08/31 02:55:45;;;;;;;;;;;;;;;13.97;100.00;101847.66;5049047;28;20255;-66
2021/08/31 02:58:12;;;;;;;;;;;;;;;13.97;100.00;101843.09;5046633;28;19924;-66
2021/08/31 03:00:42;;;;;;;;;;;;;;;13.99;100.00;101851.88;5049737;28;19950;-68
2021/08/31 03:03:10;;;;;;;;;;;;;;;13.94;100.00;101848.81;5053042;28;20315;-68
2021/08/31 03:05:38;;;;;;;;;;;;;;;13.89;100.00;101851.13;5045779;28;19950;-66
2021/08/31 03:08:06;;;;;;;;;;;;;;;13.84;100.00;101850.78;5041806;28;19931;-66
2021/08/31 03:10:35;;;;;;;;;;;;;;;13.71;100.00;101848.53;5045375;28;19931;-68
2021/08/31 03:13:02;;;;;;;;;;;;;;;13.69;100.00;101851.34;5046533;28;19921;-68
2021/08/31 03:15:30;;;;;;;;;;;;;;;13.61;100.00;101851.31;5039765;28;20155;-68
2021/08/31 03:17:58;;;;;;;;;;;;;;;13.58;100.00;101856.97;5049779;28;19924;-68
2021/08/31 03:20:26;;;;;;;;;;;;;;;13.67;100.00;101858.72;5046726;28;19974;-68
2021/08/31 03:22:54;;;;;;;;;;;;;;;13.73;100.00;101855.38;5047890;28;19936;-68
2021/08/31 03:25:22;;;;;;;;;;;;;;;13.73;100.00;101855.38;5042693;28;19921;-68
2021/08/31 03:27:50;;;;;;;;;;;;;;;13.73;100.00;101858.06;5049146;28;19986;-68
2021/08/31 03:30:20;;;;;;;;;;;;;;;13.75;100.00;101861.47;5048532;28;19956;-67
2021/08/31 03:32:47;;;;;;;;;;;;;;;13.75;100.00;101861.47;5048915;28;19981;-68
2021/08/31 03:35:15;;;;;;;;;;;;;;;13.76;100.00;101864.97;5043328;28;19921;-68
2021/08/31 03:37:43;;;;;;;;;;;;;;;13.76;100.00;101873.88;5049532;28;19928;-67
2021/08/31 03:40:11;;;;;;;;;;;;;;;13.75;100.00;101872.19;5048359;28;19925;-69
2021/08/31 03:42:39;;;;;;;;;;;;;;;13.74;100.00;101873.19;5048775;28;20255;-68
2021/08/31 03:45:09;;;;;;;;;;;;;;;13.74;100.00;101875.88;5054204;28;19920;-68
2021/08/31 03:47:36;;;;;;;;;;;;;;;13.72;100.00;101872.53;5047781;28;19920;-67
2021/08/31 03:50:04;;;;;;;;;;;;;;;13.71;100.00;101868.16;5051064;28;20275;-68
2021/08/31 03:52:32;;;;;;;;;;;;;;;13.70;100.00;101871.00;5051512;28;19927;-68
2021/08/31 03:55:00;;;;;;;;;;;;;;;13.68;100.00;101873.84;5046877;28;19928;-68
2021/08/31 03:57:27;;;;;;;;;;;;;;;13.65;100.00;101879.53;5050918;28;19928;-67
2021/08/31 03:59:55;;;;;;;;;;;;;;;13.59;100.00;101877.44;5051061;28;19924;-68
2021/08/31 04:02:25;;;;;;;;;;;;;;;13.53;100.00;101883.44;5048196;28;19929;-67
2021/08/31 04:04:52;;;;;;;;;;;;;;;13.48;100.00;101880.38;5051370;28;19931;-68
2021/08/31 04:07:20;;;;;;;;;;;;;;;13.34;100.00;101874.56;5051334;28;19966;-69
2021/08/31 04:09:48;;;;;;;;;;;;;;;13.31;100.00;101882.94;5054693;28;19928;-68
2021/08/31 04:12:15;;;;;;;;;;;;;;;13.23;100.00;101882.84;5048386;28;19925;-68
2021/08/31 04:14:43;;;;;;;;;;;;;;;13.16;100.00;101884.47;5045458;28;20320;-68
2021/08/31 04:17:11;;;;;;;;;;;;;;;13.17;100.00;101889.69;5050277;28;20279;-68
2021/08/31 04:19:40;;;;;;;;;;;;;;;13.09;100.00;101890.44;5054870;28;19928;-67
2021/08/31 04:22:09;;;;;;;;;;;;;;;12.96;100.00;101894.50;5051419;28;20220;-68
2021/08/31 04:24:37;;;;;;;;;;;;;;;13.01;100.00;101895.75;5051504;28;19937;-68
2021/08/31 04:27:05;;;;;;;;;;;;;;;13.09;100.00;101901.16;5047485;28;19975;-67
2021/08/31 04:29:32;;;;;;;;;;;;;;;13.20;100.00;101902.78;5047833;28;19928;-66
2021/08/31 04:32:00;;;;;;;;;;;;;;;13.30;100.00;101896.47;5050267;28;20708;-65
2021/08/31 04:34:28;;;;;;;;;;;;;;;13.41;100.00;101910.53;5047440;28;20360;-66
2021/08/31 04:36:57;;;;;;;;;;;;;;;13.47;100.00;101902.84;5050597;28;19933;-66
2021/08/31 04:39:25;;;;;;;;;;;;;;;13.54;100.00;101895.88;5049110;28;20275;-66
2021/08/31 04:41:52;;;;;;;;;;;;;;;13.50;100.00;101902.56;5047155;28;20012;-66
2021/08/31 04:44:22;;;;;;;;;;;;;;;13.40;100.00;101910.69;5045368;28;20218;-67
2021/08/31 04:46:50;;;;;;;;;;;;;;;13.37;100.00;101911.00;5050091;28;19924;-67
2021/08/31 04:49:18;;;;;;;;;;;;;;;13.25;100.00;101905.84;5052150;28;19925;-67
2021/08/31 04:51:45;;;;;;;;;;;;;;;13.16;100.00;101913.97;5055609;28;19975;-67
2021/08/31 04:54:15;;;;;;;;;;;;;;;13.08;100.00;101915.59;5023808;28;20394;-67
2021/08/31 04:56:42;;;;;;;;;;;;;;;13.05;100.00;101909.66;5048483;28;19936;-67
2021/08/31 04:59:10;;;;;;;;;;;;;;;12.89;100.00;101913.03;5052376;28;20264;-66
2021/08/31 05:01:37;;;;;;;;;;;;;;;12.97;100.00;101904.22;5053539;28;19924;-67
2021/08/31 05:04:05;;;;;;;;;;;;;;;13.05;100.00;101918.53;5052743;28;19924;-67
2021/08/31 05:06:33;;;;;;;;;;;;;;;13.13;100.00;101914.28;5043906;28;19932;-67
2021/08/31 05:09:01;;;;;;;;;;;;;;;13.22;100.00;101908.81;5047518;28;20186;-67
2021/08/31 05:11:30;;;;;;;;;;;;;;;13.29;100.00;101914.41;5044691;28;19950;-67
2021/08/31 05:13:58;;;;;;;;;;;;;;;13.38;100.00;101916.22;5047353;28;19966;-67
2021/08/31 05:16:25;;;;;;;;;;;;;;;13.45;100.00;101916.41;5051154;28;20302;-67
2021/08/31 05:18:53;;;;;;;;;;;;;;;13.46;100.00;101917.28;5047732;28;19946;-67
2021/08/31 05:21:21;;;;;;;;;;;;;;;13.45;100.00;101926.31;5047747;28;19982;-67
2021/08/31 05:23:48;;;;;;;;;;;;;;;13.48;100.00;101928.69;5045844;28;20625;-67
2021/08/31 05:26:16;;;;;;;;;;;;;;;13.49;100.00;101933.06;5050531;28;19994;-67
2021/08/31 05:28:45;;;;;;;;;;;;;;;13.58;100.00;101926.75;5047422;28;19965;-67
2021/08/31 05:31:13;;;;;;;;;;;;;;;13.59;100.00;101931.13;5049492;28;20221;-66
2021/08/31 05:33:41;;;;;;;;;;;;;;;13.62;100.00;101930.81;5043450;28;19939;-67
2021/08/31 05:36:09;;;;;;;;;;;;;;;13.65;100.00;101924.28;5048927;28;19928;-66
2021/08/31 05:38:36;;;;;;;;;;;;;;;13.69;100.00;101933.72;5045991;28;20324;-67
2021/08/31 05:41:04;;;;;;;;;;;;;;;13.74;100.00;101929.56;5045941;28;19925;-67
2021/08/31 05:43:32;;;;;;;;;;;;;;;13.77;100.00;101933.78;5047467;28;19924;-66
2021/08/31 05:46:01;;;;;;;;;;;;;;;13.85;100.00;101928.47;5047867;28;19921;-66
2021/08/31 05:48:30;;;;;;;;;;;;;;;13.90;100.00;101933.34;5046725;28;19929;-66
2021/08/31 05:50:58;;;;;;;;;;;;;;;13.89;100.00;101937.03;5046760;28;19921;-66
2021/08/31 05:53:25;;;;;;;;;;;;;;;14.01;100.00;101935.78;5042947;28;21069;-66
2021/08/31 05:55:53;;;;;;;;;;;;;;;13.98;100.00;101943.28;5045939;28;19932;-66
2021/08/31 05:58:21;;;;;;;;;;;;;;;13.95;100.00;101939.13;5048087;28;19921;-66
2021/08/31 06:00:50;;;;;;;;;;;;;;;13.90;100.00;101941.41;5048565;28;19928;-66
2021/08/31 06:03:19;;;;;;;;;;;;;;;13.93;100.00;101943.78;5051282;28;19925;-66
2021/08/31 06:05:47;;;;;;;;;;;;;;;14.02;100.00;101950.03;5047509;28;19921;-66
2021/08/31 06:08:15;;;;;;;;;;;;;;;14.15;100.00;101944.25;5050924;28;20348;-66
2021/08/31 06:10:43;;;;;;;;;;;;;;;14.28;100.00;101952.72;5045143;28;19932;-66
2021/08/31 06:13:11;;;;;;;;;;;;;;;14.34;100.00;101957.44;5043991;28;19929;-66
2021/08/31 06:15:38;;;;;;;;;;;;;;;14.37;100.00;101958.97;5042660;28;19936;-66
2021/08/31 06:18:07;;;;;;;;;;;;;;;14.28;100.00;101966.16;5048123;28;20240;-66
2021/08/31 06:20:36;;;;;;;;;;;;;;;14.28;100.00;101968.84;5047922;28;19924;-66
2021/08/31 06:23:04;;;;;;;;;;;;;;;14.34;100.00;101967.38;5047631;28;19982;-66
2021/08/31 06:25:31;;;;;;;;;;;;;;;14.41;100.00;101966.53;5042542;28;20413;-66
2021/08/31 06:27:59;;;;;;;;;;;;;;;14.41;100.00;101963.84;5046154;28;19925;-66
2021/08/31 06:30:27;;;;;;;;;;;;;;;14.60;100.00;101973.53;5047611;28;19932;-66
2021/08/31 06:32:54;;;;;;;;;;;;;;;14.87;100.00;101973.47;5046220;28;19928;-66
2021/08/31 06:35:22;;;;;;;;;;;;;;;14.97;100.00;101977.72;5042403;28;20316;-66
2021/08/31 06:37:51;;;;;;;;;;;;;;;15.11;100.00;101975.38;5045473;28;19928;-66
2021/08/31 06:40:19;;;;;;;;;;;;;;;15.01;100.00;101978.22;5048390;28;20015;-66
2021/08/31 06:42:47;;;;;;;;;;;;;;;15.14;100.00;101975.91;5045858;28;19933;-66
2021/08/31 06:45:14;;;;;;;;;;;;;;;15.16;100.00;101973.06;5045186;28;20312;-66
2021/08/31 06:47:42;;;;;;;;;;;;;;;14.98;100.00;101971.34;5050466;28;19924;-66
2021/08/31 06:50:15;;;;;;;;;;;;;;;14.92;100.00;101976.53;5043604;28;19986;-66
2021/08/31 06:52:43;;;;;;;;;;;;;;;15.01;100.00;101978.22;5040855;28;19921;-67
2021/08/31 06:55:12;;;;;;;;;;;;;;;14.88;100.00;101980.56;5041644;28;19920;-66
2021/08/31 06:57:40;;;;;;;;;;;;;;;15.02;100.00;101979.09;5049348;28;20109;-66
2021/08/31 07:00:09;;;;;;;;;;;;;;;15.03;100.00;101980.78;5046418;28;20220;-66
2021/08/31 07:02:36;;;;;;;;;;;;;;;15.12;100.00;101977.91;5044155;28;20340;-65
2021/08/31 07:05:04;;;;;;;;;;;;;;;15.12;100.00;101982.47;5043366;28;20271;-65
2021/08/31 07:07:32;;;;;;;;;;;;;;;15.18;100.00;101976.41;5045842;28;19927;-65
2021/08/31 07:10:00;;;;;;;;;;;;;;;15.41;100.00;101982.00;5042876;28;19995;-65
2021/08/31 07:12:29;;;;;;;;;;;;;;;15.43;100.00;101985.38;5047763;28;19932;-65
2021/08/31 07:14:58;;;;;;;;;;;;;;;15.35;100.00;101979.13;5042489;28;19924;-65
2021/08/31 07:17:26;;;;;;;;;;;;;;;15.48;100.00;101979.50;5043727;28;20189;-65
2021/08/31 07:19:53;;;;;;;;;;;;;;;15.68;100.00;101980.00;5047247;28;19990;-65
2021/08/31 07:22:22;;;;;;;;;;;;;;;15.77;100.00;101976.28;5051431;28;19928;-65
2021/08/31 07:24:49;;;;;;;;;;;;;;;16.08;100.00;101969.38;5043312;28;19943;-65
2021/08/31 07:27:17;;;;;;;;;;;;;;;15.74;100.00;101968.56;5044330;28;20378;-65
2021/08/31 07:29:46;;;;;;;;;;;;;;;15.62;100.00;101968.06;5045591;28;19924;-65
2021/08/31 07:32:15;;;;;;;;;;;;;;;15.57;100.00;101969.56;5048084;28;19920;-65
2021/08/31 07:34:43;;;;;;;;;;;;;;;15.56;100.00;101981.34;5044684;28;20312;-65
2021/08/31 07:37:11;;;;;;;;;;;;;;;15.76;100.00;101977.31;5047476;28;19971;-65
2021/08/31 07:39:38;;;;;;;;;;;;;;;16.23;100.00;101981.16;5045007;28;20220;-65
2021/08/31 07:42:06;;;;;;;;;;;;;;;16.13;100.00;101981.34;5047732;28;19955;-64
2021/08/31 07:44:34;;;;;;;;;;;;;;;16.16;100.00;101975.59;5039729;28;19950;-64
2021/08/31 07:47:03;;;;;;;;;;;;;;;16.60;100.00;101966.19;5047972;28;19978;-64
2021/08/31 07:49:31;;;;;;;;;;;;;;;16.76;100.00;101965.25;5046181;28;20171;-64
2021/08/31 07:51:59;;;;;;;;;;;;;;;16.90;100.00;101973.66;5046928;28;19920;-64
2021/08/31 07:54:26;;;;;;;;;;;;;;;17.35;100.00;101964.78;5044063;28;19959;-65
2021/08/31 07:56:56;;;;;;;;;;;;;;;17.15;100.00;101958.16;5046764;28;20312;-64
2021/08/31 07:59:24;;;;;;;;;;;;;;;17.16;100.00;101966.06;5045339;28;19969;-64
2021/08/31 08:01:51;;;;;;;;;;;;;;;17.21;100.00;101962.84;5044920;28;19921;-65
2021/08/31 08:04:21;;;;;;;;;;;;;;;17.24;100.00;101954.41;5044487;28;20023;-64
2021/08/31 08:06:48;;;;;;;;;;;;;;;17.19;100.00;101957.59;5048172;28;19921;-64
2021/08/31 08:09:16;;;;;;;;;;;;;;;17.68;100.00;101958.25;5045142;28;19974;-64
2021/08/31 08:11:43;;;;;;;;;;;;;;;17.83;100.00;101956.44;5048566;28;19928;-64
2021/08/31 08:14:11;;;;;;;;;;;;;;;17.86;100.00;101960.59;5043124;28;19932;-65
2021/08/31 08:16:39;;;;;;;;;;;;;;;17.85;100.00;101967.06;5049342;28;20418;-65
2021/08/31 08:19:06;;;;;;;;;;;;;;;17.84;100.00;101968.06;5047099;28;19932;-65
2021/08/31 08:21:36;;;;;;;;;;;;;;;18.09;100.00;101965.13;5044533;28;20316;-65
2021/08/31 08:24:08;;;;;;;;;;;;;;;18.10;100.00;101967.66;5044979;28;19928;-65
2021/08/31 08:26:35;;;;;;;;;;;;;;;18.38;100.00;101967.84;5045952;28;19924;-64
2021/08/31 08:29:03;;;;;;;;;;;;;;;18.21;100.00;101975.31;5045107;28;20507;-65
2021/08/31 08:31:33;;;;;;;;;;;;;;;18.14;100.00;101981.66;5049912;28;19932;-64
2021/08/31 08:34:01;;;;;;;;;;;;;;;17.61;100.00;101973.53;5047052;28;19925;-64
2021/08/31 08:36:29;;;;;;;;;;;;;;;17.50;100.00;101982.88;5049878;28;19924;-64
2021/08/31 08:38:58;;;;;;;;;;;;;;;17.66;100.00;101981.91;5048693;28;19924;-64
2021/08/31 08:41:25;;;;;;;;;;;;;;;18.07;100.00;101986.94;5047032;28;19932;-65
2021/08/31 08:44:00;;;;;;;;;;;;;;;17.98;100.00;101988.91;5047085;28;20183;-65
2021/08/31 08:46:27;;;;;;;;;;;;;;;17.76;100.00;101987.06;5047837;28;19929;-65
2021/08/31 08:48:57;;;;;;;;;;;;;;;18.13;100.00;101993.47;5051582;28;19970;-65
2021/08/31 08:51:25;;;;;;;;;;;;;;;18.80;100.00;101997.09;5050236;28;19929;-64
2021/08/31 08:53:52;;;;;;;;;;;;;;;18.42;100.00;102003.47;5051455;28;19982;-64
2021/08/31 08:56:21;;;;;;;;;;;;;;;18.41;100.00;102001.78;5050112;28;19921;-64
2021/08/31 08:58:49;;;;;;;;;;;;;;;18.54;100.00;102002.00;5052383;28;19936;-64
2021/08/31 09:01:17;;;;;;;;;;;;;;;18.86;100.00;102002.59;5047960;28;20248;-65
2021/08/31 09:03:51;;;;;;;;;;;;;;;20.75;100.00;101995.03;5048475;28;19939;-65
2021/08/31 09:06:20;;;;;;;;;;;;;;;20.76;100.00;102004.88;5049017;28;19924;-65
2021/08/31 09:08:54;;;;;;;;;;;;;;;20.08;100.00;101989.22;5048593;28;19924;-65
2021/08/31 09:11:25;;;;;;;;;;;;;;;20.13;100.00;101994.91;5045618;28;19924;-65
2021/08/31 09:14:13;;;;;;;;;;;;;;;20.13;100.00;101997.63;5048130;28;19928;-65
2021/08/31 09:16:41;;;;;;;;;;;;;;;19.65;100.00;102003.66;5049395;28;19978;-65
2021/08/31 09:19:09;;;;;;;;;;;;;;;19.65;100.00;102008.22;5051419;28;20400;-65
2021/08/31 09:21:37;;;;;;;;;;;;;;;19.17;100.00;101998.81;5050873;28;20127;-64
2021/08/31 09:24:05;;;;;;;;;;;;;;;19.65;100.00;102002.81;5049133;28;20352;-64
2021/08/31 09:26:38;;;;;;;;;;;;;;;19.75;100.00;102000.63;5048018;28;20299;-65
2021/08/31 09:29:16;;;;;;;;;;;;;;;20.90;100.00;101994.91;5048614;28;19986;-65
2021/08/31 09:31:53;;;;;;;;;;;;;;;20.55;100.00;101998.47;5050030;28;19921;-65
2021/08/31 09:34:41;;;;;;;;;;;;;;;20.81;100.00;101991.53;5049844;28;19932;-65
2021/08/31 09:37:29;;;;;;;;;;;;;;;20.58;100.00;101997.22;5050089;28;19928;-65
2021/08/31 09:40:07;;;;;;;;;;;;;;;19.49;100.00;101999.38;5049674;28;20243;-65
2021/08/31 09:42:50;;;;;;;;;;;;;;;19.63;100.00;101999.47;5047128;28;19925;-65
2021/08/31 09:45:21;;;;;;;;;;;;;;;20.80;100.00;102000.72;5043159;28;19990;-65
2021/08/31 09:47:49;;;;;;;;;;;;;;;19.89;100.00;102004.28;5048244;28;19932;-65
2021/08/31 09:50:28;;;;;;;;;;;;;;;21.42;100.00;101987.06;5048542;28;19929;-66
2021/08/31 09:53:09;;;;;;;;;;;;;;;20.62;100.00;101998.50;5048204;28;20300;-66
2021/08/31 09:55:38;;;;;;;;;;;;;;;18.92;100.00;101999.19;5042369;28;20141;-65
2021/08/31 09:58:23;;;;;;;;;;;;;;;19.19;100.00;102012.16;5046104;28;19929;-65
2021/08/31 10:00:55;;;;;;;;;;;;;;;19.06;100.00;102013.69;5046820;28;20359;-65
2021/08/31 10:03:24;;;;;;;;;;;;;;;19.90;100.00;102009.56;5052714;28;19921;-65
2021/08/31 10:05:52;;;;;;;;;;;;;;;20.93;100.00;102010.78;5047136;28;19928;-66
2021/08/31 10:08:20;;;;;;;;;;;;;;;21.85;100.00;102000.31;5049098;28;19986;-66
2021/08/31 10:10:49;;;;;;;;;;;;;;;20.05;100.00;102008.63;5048764;28;19948;-66
2021/08/31 10:13:17;;;;;;;;;;;;;;;20.79;100.00;102002.56;5051343;28;19998;-66
2021/08/31 10:15:46;;;;;;;;;;;;;;;19.83;100.00;102000.50;5046725;28;19924;-65
2021/08/31 10:18:15;;;;;;;;;;;;;;;21.43;100.00;102005.88;5049217;28;20320;-65
2021/08/31 10:20:46;;;;;;;;;;;;;;;21.93;100.00;102005.53;5048849;28;19929;-65
2021/08/31 10:23:14;;;;;;;;;;;;;;;22.43;100.00;102009.66;5047107;28;19935;-65
2021/08/31 10:25:42;;;;;;;;;;;;;;;22.94;100.00;102008.84;5041087;28;20249;-65
2021/08/31 10:28:25;;;;;;;;;;;;;;;20.94;100.00;102013.28;5045638;28;19929;-65
2021/08/31 10:30:53;;;;;;;;;;;;;;;23.37;100.00;102000.00;5045026;28;20052;-65
2021/08/31 10:33:35;;;;;;;;;;;;;;;23.27;100.00;102002.38;5051820;28;19924;-66
2021/08/31 10:36:05;;;;;;;;;;;;;;;24.81;100.00;101992.78;5048419;28;20312;-65
2021/08/31 10:38:46;;;;;;;;;;;;;;;23.27;100.00;101994.22;5051744;28;20338;-65
2021/08/31 10:41:42;;;;;;;;;;;;;;;23.17;100.00;101999.31;5043515;28;19921;-65
2021/08/31 10:44:12;;;;;;;;;;;;;;;20.02;100.00;102009.00;5042847;28;19970;-66
2021/08/31 10:47:03;;;;;;;;;;;;;;;20.27;100.00;102012.94;5049736;28;19921;-65
2021/08/31 10:49:32;;;;;;;;;;;;;;;19.62;100.00;102020.31;5044046;28;19931;-65
2021/08/31 10:52:07;;;;;;;;;;;;;;;21.04;100.00;102022.94;5046220;28;20301;-65
2021/08/31 10:54:44;;;;;;;;;;;;;;;20.57;100.00;102012.69;5048310;28;20225;-66
2021/08/31 10:57:30;;;;;;;;;;;;;;;21.29;100.00;102005.03;5047658;28;20041;-65
2021/08/31 10:59:58;;;;;;;;;;;;;;;22.78;100.00;102003.88;5050632;28;19928;-65
2021/08/31 11:02:44;;;;;;;;;;;;;;;21.15;100.00;101997.88;5048983;28;20423;-65
2021/08/31 11:05:26;;;;;;;;;;;;;;;21.10;100.00;102001.22;5044280;28;20279;-65
2021/08/31 11:07:59;;;;;;;;;;;;;;;21.60;100.00;102000.91;5046485;28;19925;-65
2021/08/31 11:10:28;;;;;;;;;;;;;;;21.00;100.00;101995.34;5043862;28;19943;-65
2021/08/31 11:12:56;;;;;;;;;;;;;;;21.44;100.00;102004.84;5044762;28;20333;-65
2021/08/31 11:15:24;;;;;;;;;;;;;;;21.28;100.00;102007.97;5047760;28;19970;-65
2021/08/31 11:17:53;;;;;;;;;;;;;;;21.56;100.00;102005.13;5044976;28;19925;-65
2021/08/31 11:20:23;;;;;;;;;;;;;;;22.01;100.00;102001.75;5045349;28;19920;-65
2021/08/31 11:22:54;;;;;;;;;;;;;;;21.98;100.00;102005.72;5048784;28;19947;-65
2021/08/31 11:25:26;;;;;;;;;;;;;;;23.43;100.00;102003.72;5040974;28;19920;-65
2021/08/31 11:27:55;;;;;;;;;;;;;;;22.95;100.00;101999.63;5048710;28;19955;-65
2021/08/31 11:30:23;;;;;;;;;;;;;;;24.10;100.00;102007.81;5046446;28;19947;-65
2021/08/31 11:32:51;;;;;;;;;;;;;;;22.52;100.00;101995.59;5047664;28;19977;-66
2021/08/31 11:35:18;;;;;;;;;;;;;;;24.94;100.00;101991.75;5047177;28;19925;-65
2021/08/31 11:37:49;;;;;;;;;;;;;;;24.24;100.00;102006.63;5044039;28;20317;-66
2021/08/31 11:40:26;;;;;;;;;;;;;;;21.76;100.00;102001.53;5050593;28;19924;-65
2021/08/31 11:42:54;;;;;;;;;;;;;;;20.08;100.00;102002.78;5043579;28;20135;-65
2021/08/31 11:45:23;;;;;;;;;;;;;;;19.35;100.00;102011.06;5042585;28;20536;-64
2021/08/31 11:47:54;;;;;;;;;;;;;;;19.86;100.00;102013.69;5044751;28;19921;-65
2021/08/31 11:50:22;;;;;;;;;;;;;;;20.05;100.00;102011.31;5045978;28;19927;-64
2021/08/31 11:52:49;;;;;;;;;;;;;;;19.53;100.00;102000.63;5047170;28;19921;-65
2021/08/31 11:55:26;;;;;;;;;;;;;;;21.49;100.00;102004.22;5044575;28;19960;-65
2021/08/31 11:58:03;;;;;;;;;;;;;;;21.46;100.00;102002.78;5046770;28;19993;-65
2021/08/31 12:00:41;;;;;;;;;;;;;;;22.01;100.00;101996.31;5049420;28;20319;-65
2021/08/31 12:03:18;;;;;;;;;;;;;;;22.45;100.00;101999.38;5046920;28;20307;-65
2021/08/31 12:05:46;;;;;;;;;;;;;;;22.60;100.00;101993.69;5045754;28;20374;-65
2021/08/31 12:08:14;;;;;;;;;;;;;;;23.25;100.00;101996.34;5053865;28;19943;-65
2021/08/31 12:10:43;;;;;;;;;;;;;;;22.28;100.00;101986.22;5054552;28;20225;-65
2021/08/31 12:13:11;;;;;;;;;;;;;;;21.64;100.00;102002.16;5051095;28;20122;-65
2021/08/31 12:15:39;;;;;;;;;;;;;;;19.99;100.00;102003.97;5046368;28;19982;-65
2021/08/31 12:18:07;;;;;;;;;;;;;;;20.62;100.00;102007.47;5049463;28;19920;-65
2021/08/31 12:20:36;;;;;;;;;;;;;;;19.80;100.00;102011.75;5051170;28;19920;-65
2021/08/31 12:23:05;;;;;;;;;;;;;;;20.42;100.00;102015.50;5045954;28;20226;-65
2021/08/31 12:25:44;;;;;;;;;;;;;;;20.32;100.00;102014.22;5046883;28;19925;-65
2021/08/31 12:28:12;;;;;;;;;;;;;;;21.00;100.00;102008.09;5048302;28;19932;-65
2021/08/31 12:30:40;;;;;;;;;;;;;;;20.61;100.00;102018.53;5053034;28;19930;-65
2021/08/31 12:33:08;;;;;;;;;;;;;;;21.85;100.00;102016.63;5050501;28;19954;-65
2021/08/31 12:35:37;;;;;;;;;;;;;;;23.24;100.00;102011.00;5047198;28;19948;-65
2021/08/31 12:38:10;;;;;;;;;;;;;;;25.89;100.00;102008.41;5049392;28;19986;-66